Time;durP1;ratioP1;P1;durP2;ratioP2;P2;SDS_P1;SDS_P2;PMS_P1;PMS_P2;Temp;Humidity;BMP_temperature;BMP_pressure;BME280_temperature;BME280_humidity;BME280_pressure;Samples;Min_cycle;Max_cycle;Signal;HPM_P1;HPM_P2
2022/05/12 00:00:54;;;;;;;6.65;3.72;;;12.70;99.90;;;;;;4883504;29;20025;-83
2022/05/12 00:03:20;;;;;;;8.77;3.95;;;11.40;99.90;;;;;;4866483;29;20059;-80
2022/05/12 00:05:46;;;;;;;7.13;3.25;;;12.60;99.90;;;;;;4883297;29;20667;-86
2022/05/12 00:08:12;;;;;;;8.90;4.18;;;12.60;99.90;;;;;;4882960;29;20024;-83
2022/05/12 00:10:39;;;;;;;7.97;3.90;;;12.50;99.90;;;;;;4882993;29;20029;-80
2022/05/12 00:13:06;;;;;;;7.75;3.28;;;12.40;99.90;;;;;;4883607;29;20055;-80
2022/05/12 00:15:34;;;;;;;8.38;3.88;;;12.40;99.90;;;;;;4866015;29;20139;-84
2022/05/12 00:18:03;;;;;;;7.75;3.70;;;12.40;99.90;;;;;;4883626;29;20020;-84
2022/05/12 00:20:33;;;;;;;7.93;4.32;;;12.30;99.90;;;;;;4884078;29;20031;-84
2022/05/12 00:23:16;;;;;;;9.52;4.22;;;12.20;99.90;;;;;;4886531;29;20043;-82
2022/05/12 00:25:44;;;;;;;7.63;3.17;;;12.10;99.90;;;;;;4893755;29;20090;-78
2022/05/12 00:28:11;;;;;;;7.65;3.63;;;12.10;99.90;;;;;;4884320;29;20020;-84
2022/05/12 00:30:40;;;;;;;6.93;3.67;;;12.00;99.90;;;;;;4866997;29;20028;-84
2022/05/12 01:01:38;;;;;;;6.57;2.92;;;11.70;99.90;;;;;;4936306;23;20699;-77
2022/05/12 01:04:05;;;;;;;8.45;3.58;;;11.80;99.90;;;;;;4875506;29;20687;-81
2022/05/12 01:06:31;;;;;;;11.48;4.65;;;11.70;99.90;;;;;;4879508;29;20056;-83
2022/05/12 01:08:57;;;;;;;9.40;3.85;;;11.70;99.90;;;;;;4888220;29;20029;-79
2022/05/12 01:11:24;;;;;;;7.03;3.28;;;11.70;99.90;;;;;;4908712;29;20024;-79
2022/05/12 01:13:59;;;;;;;9.32;4.32;;;11.70;99.90;;;;;;4901639;29;20021;-78
2022/05/12 01:16:45;;;;;;;9.13;4.15;;;11.80;99.90;;;;;;4879515;29;20020;-84
2022/05/12 01:19:25;;;;;;;8.18;3.80;;;11.80;99.90;;;;;;4890583;29;20108;-78
2022/05/12 01:21:54;;;;;;;8.25;4.18;;;11.80;99.90;;;;;;4869846;29;20092;-83
2022/05/12 01:24:24;;;;;;;11.07;5.18;;;11.80;99.90;;;;;;4886783;29;20033;-80
2022/05/12 01:26:50;;;;;;;8.43;3.83;;;11.80;99.90;;;;;;4892499;29;20017;-82
2022/05/12 01:29:17;;;;;;;8.02;3.30;;;11.70;99.90;;;;;;4887799;29;20040;-81
2022/05/12 01:31:43;;;;;;;12.35;6.93;;;11.80;99.90;;;;;;4909477;29;20025;-79
2022/05/12 01:34:11;;;;;;;9.82;4.57;;;11.80;99.90;;;;;;4892030;29;20188;-79
2022/05/12 01:36:37;;;;;;;8.15;3.60;;;11.70;99.90;;;;;;4896130;29;20033;-80
2022/05/12 01:39:05;;;;;;;8.75;4.22;;;11.70;99.90;;;;;;4894241;29;20028;-79
2022/05/12 01:41:31;;;;;;;8.00;4.18;;;11.70;99.90;;;;;;4881067;29;20024;-83
2022/05/12 01:44:00;;;;;;;7.05;4.07;;;11.60;99.90;;;;;;4897695;29;20035;-86
2022/05/12 01:46:26;;;;;;;7.30;3.83;;;11.50;99.90;;;;;;4897820;29;20021;-77
2022/05/12 01:48:51;;;;;;;8.52;3.70;;;11.50;99.90;;;;;;4905681;29;20024;-80
2022/05/12 01:51:20;;;;;;;7.13;3.72;;;11.40;99.90;;;;;;4912661;29;20374;-81
2022/05/12 01:53:50;;;;;;;6.40;3.15;;;11.40;99.90;;;;;;4916070;29;20005;-78
2022/05/12 01:56:21;;;;;;;7.90;3.78;;;11.40;99.90;;;;;;4917055;29;20076;-77
2022/05/12 01:58:55;;;;;;;6.95;3.75;;;11.30;99.90;;;;;;4915707;29;20084;-78
2022/05/12 02:01:20;;;;;;;7.95;5.13;;;11.20;99.90;;;;;;4896483;29;20052;-79
2022/05/12 02:03:46;;;;;;;8.98;3.33;;;11.20;99.90;;;;;;4881458;29;20446;-80
2022/05/12 02:06:12;;;;;;;7.03;3.60;;;11.20;99.90;;;;;;4880814;29;20470;-80
2022/05/12 02:08:37;;;;;;;12.55;6.38;;;11.10;99.90;;;;;;4880501;29;20040;-78
2022/05/12 02:11:03;;;;;;;8.27;4.15;;;11.10;99.90;;;;;;4893502;29;20028;-81
2022/05/12 02:13:29;;;;;;;10.48;4.13;;;11.10;99.90;;;;;;4902714;29;20190;-79
2022/05/12 02:15:59;;;;;;;7.38;4.18;;;11.10;99.90;;;;;;4903148;29;20097;-77
2022/05/12 02:18:26;;;;;;;7.28;3.53;;;11.10;99.90;;;;;;4905992;29;20028;-82
2022/05/12 02:20:52;;;;;;;6.97;3.20;;;11.10;99.90;;;;;;4895697;29;20091;-77
2022/05/12 02:23:18;;;;;;;8.80;4.00;;;12.30;99.90;;;;;;4910976;29;20032;-80
2022/05/12 02:25:44;;;;;;;9.07;4.03;;;11.10;99.90;;;;;;4913103;29;20040;-76
2022/05/12 02:28:11;;;;;;;7.45;3.35;;;11.00;99.90;;;;;;4913535;29;20031;-75
2022/05/12 02:30:37;;;;;;;11.98;6.05;;;11.10;99.90;;;;;;4912218;29;20028;-77
2022/05/12 02:33:03;;;;;;;12.43;4.40;;;11.00;99.90;;;;;;4912331;29;20029;-76
2022/05/12 02:35:30;;;;;;;7.30;3.53;;;11.00;99.90;;;;;;4896147;29;20024;-77
2022/05/12 02:37:56;;;;;;;8.40;3.67;;;11.00;99.90;;;;;;4910248;29;20017;-76
2022/05/12 02:40:25;;;;;;;11.93;4.82;;;11.00;99.90;;;;;;4914746;29;20032;-79
2022/05/12 02:42:51;;;;;;;9.52;3.92;;;10.90;99.90;;;;;;4914878;29;20717;-78
2022/05/12 02:45:17;;;;;;;10.40;3.90;;;10.90;99.90;;;;;;4913085;29;20024;-79
2022/05/12 02:47:43;;;;;;;9.52;4.38;;;10.90;99.90;;;;;;4899203;29;20028;-77
2022/05/12 02:50:15;;;;;;;7.43;4.00;;;12.40;99.90;;;;;;4896790;29;20067;-77
2022/05/12 02:52:41;;;;;;;9.02;5.47;;;10.60;99.90;;;;;;4901154;29;20017;-77
2022/05/12 02:55:08;;;;;;;10.07;3.78;;;10.70;99.90;;;;;;4900778;29;20133;-78
2022/05/12 02:57:34;;;;;;;7.03;3.88;;;10.70;99.90;;;;;;4899230;29;20031;-79
2022/05/12 02:59:59;;;;;;;8.02;3.10;;;10.70;99.90;;;;;;4915244;29;20059;-78
2022/05/12 03:02:28;;;;;;;10.32;4.28;;;10.70;99.90;;;;;;4914987;29;20053;-77
2022/05/12 03:04:53;;;;;;;7.35;3.95;;;10.60;99.90;;;;;;4899285;29;20052;-78
2022/05/12 03:07:19;;;;;;;8.20;4.03;;;10.60;99.90;;;;;;4897977;29;20037;-79
2022/05/12 03:09:45;;;;;;;8.80;3.22;;;10.60;99.90;;;;;;4897644;29;20032;-77
2022/05/12 03:12:10;;;;;;;8.63;4.07;;;10.60;99.90;;;;;;4912885;29;20019;-81
2022/05/12 03:14:36;;;;;;;7.78;3.72;;;10.50;99.90;;;;;;4896694;29;20040;-79
2022/05/12 03:17:02;;;;;;;8.13;4.53;;;10.50;99.90;;;;;;4916111;29;20167;-76
2022/05/12 03:19:28;;;;;;;10.77;4.70;;;10.50;99.90;;;;;;4913583;29;20033;-74
2022/05/12 03:21:54;;;;;;;6.57;3.42;;;10.50;99.90;;;;;;4912178;29;20020;-76
2022/05/12 03:24:20;;;;;;;5.80;3.33;;;10.50;99.90;;;;;;4915457;29;20021;-76
2022/05/12 03:26:48;;;;;;;7.95;3.70;;;10.50;99.90;;;;;;4906919;29;20270;-76
2022/05/12 03:29:14;;;;;;;7.55;3.88;;;10.50;99.90;;;;;;4905244;29;20021;-77
2022/05/12 03:31:40;;;;;;;8.40;4.50;;;10.50;99.90;;;;;;4907872;29;20029;-79
2022/05/12 03:34:06;;;;;;;7.22;3.60;;;10.50;99.90;;;;;;4907236;29;20113;-78
2022/05/12 03:36:35;;;;;;;8.38;4.10;;;10.50;99.90;;;;;;4891302;29;20091;-77
2022/05/12 03:39:03;;;;;;;11.68;3.55;;;10.50;99.90;;;;;;4910264;29;20096;-76
2022/05/12 03:41:30;;;;;;;9.98;3.22;;;10.50;99.90;;;;;;4890998;29;20028;-79
2022/05/12 03:46:40;;;;;;;8.57;4.05;;;10.50;99.90;;;;;;4901534;29;20053;-76
2022/05/12 03:49:05;;;;;;;6.18;2.67;;;10.40;99.90;;;;;;4878081;29;20036;-76
2022/05/12 03:51:31;;;;;;;8.50;3.80;;;10.50;99.90;;;;;;4895710;29;20033;-76
2022/05/12 03:53:57;;;;;;;6.95;4.07;;;10.40;99.90;;;;;;4877728;29;20036;-78
2022/05/12 03:56:22;;;;;;;6.72;3.45;;;10.40;99.90;;;;;;4876126;29;20029;-75
2022/05/12 03:58:51;;;;;;;8.90;3.80;;;9.50;99.90;;;;;;4874971;29;20750;-76
2022/05/12 04:01:16;;;;;;;8.02;4.28;;;10.50;99.90;;;;;;4880190;29;20193;-77
2022/05/12 04:03:42;;;;;;;10.20;4.45;;;10.50;99.90;;;;;;4891947;29;20033;-81
2022/05/12 04:06:08;;;;;;;7.60;3.65;;;10.50;99.90;;;;;;4905943;29;20027;-78
2022/05/12 04:08:35;;;;;;;6.55;3.25;;;10.50;99.90;;;;;;4905697;29;20021;-78
2022/05/12 04:11:07;;;;;;;28.10;13.70;;;8.80;99.90;;;;;;4905571;29;20020;-79
2022/05/12 04:13:37;;;;;;;10.13;5.00;;;10.50;99.90;;;;;;4924777;29;20016;-79
2022/05/12 04:16:03;;;;;;;7.63;4.35;;;10.50;99.90;;;;;;4906871;29;20706;-77
2022/05/12 04:18:29;;;;;;;8.40;4.43;;;10.50;99.90;;;;;;4922466;29;20016;-77
2022/05/12 04:20:55;;;;;;;10.07;4.22;;;10.50;99.90;;;;;;4919788;29;20020;-77
2022/05/12 04:23:20;;;;;;;7.20;3.78;;;10.50;99.90;;;;;;4905929;29;20039;-82
2022/05/12 04:25:47;;;;;;;8.25;3.00;;;10.50;99.90;;;;;;4924463;29;20024;-80
2022/05/12 04:28:13;;;;;;;6.57;3.13;;;10.60;99.90;;;;;;4926215;29;20052;-77
2022/05/12 04:30:39;;;;;;;5.65;3.03;;;10.60;99.90;;;;;;4906821;29;20035;-79
2022/05/12 04:35:49;;;;;;;11.05;3.83;;;10.70;99.90;;;;;;4916079;29;20038;-76
2022/05/12 04:38:16;;;;;;;9.18;4.70;;;10.80;99.90;;;;;;4919700;29;20016;-80
2022/05/12 04:40:41;;;;;;;11.02;4.57;;;10.80;99.90;;;;;;4914811;29;20137;-77
2022/05/12 04:43:07;;;;;;;10.05;4.93;;;10.90;99.90;;;;;;4910163;29;20040;-78
2022/05/12 04:45:34;;;;;;;10.38;4.60;;;11.00;99.90;;;;;;4911730;29;20052;-78
2022/05/12 04:47:59;;;;;;;9.88;4.97;;;11.10;99.90;;;;;;4909505;29;20029;-81
2022/05/12 04:50:33;;;;;;;8.02;4.60;;;11.20;99.90;;;;;;4895872;29;20123;-76
2022/05/12 04:52:59;;;;;;;10.77;4.70;;;11.20;99.90;;;;;;4895095;29;20095;-77
2022/05/12 04:55:25;;;;;;;12.45;6.13;;;11.40;99.90;;;;;;4886940;29;20040;-80
2022/05/12 04:57:57;;;;;;;9.20;4.95;;;11.40;99.90;;;;;;4902983;29;20024;-82
2022/05/12 05:00:35;;;;;;;9.55;4.60;;;11.50;99.90;;;;;;4901656;29;20052;-78
2022/05/12 05:03:02;;;;;;;11.48;4.57;;;11.50;99.90;;;;;;4884220;29;20175;-76
2022/05/12 05:05:28;;;;;;;7.32;3.40;;;11.60;99.90;;;;;;4902966;29;20414;-78
2022/05/12 05:07:54;;;;;;;11.10;5.32;;;11.70;99.90;;;;;;4905007;29;20020;-79
2022/05/12 05:10:20;;;;;;;14.40;5.65;;;11.90;99.90;;;;;;4905112;29;20024;-76
2022/05/12 05:12:46;;;;;;;17.27;8.73;;;11.90;99.90;;;;;;4905152;29;20044;-82
2022/05/12 05:15:14;;;;;;;12.90;7.07;;;12.00;99.90;;;;;;4888628;29;20020;-81
2022/05/12 05:17:40;;;;;;;11.25;4.93;;;12.00;99.90;;;;;;4888030;29;20778;-77
2022/05/12 05:20:11;;;;;;;10.00;4.40;;;12.10;99.90;;;;;;4905080;29;20021;-79
2022/05/12 05:22:38;;;;;;;9.10;4.47;;;12.50;99.90;;;;;;4871931;29;20153;-77
2022/05/12 05:25:05;;;;;;;10.38;3.15;;;12.30;99.90;;;;;;4887624;29;20161;-76
2022/05/12 05:27:31;;;;;;;6.82;3.63;;;12.40;99.90;;;;;;4904856;29;20228;-80
2022/05/12 05:29:58;;;;;;;8.10;3.90;;;12.50;99.90;;;;;;4904441;29;20511;-79
2022/05/12 05:32:24;;;;;;;8.73;4.20;;;12.60;99.90;;;;;;4887144;29;20036;-78
2022/05/12 05:34:53;;;;;;;10.27;3.50;;;12.60;99.90;;;;;;4887503;29;20040;-76
2022/05/12 05:37:19;;;;;;;8.35;4.00;;;14.60;99.90;;;;;;4905307;29;20159;-80
2022/05/12 05:39:44;;;;;;;9.88;4.43;;;12.80;99.90;;;;;;4904992;29;20106;-76
2022/05/12 05:42:15;;;;;;;9.30;4.07;;;12.90;99.90;;;;;;4888327;29;20040;-75
2022/05/12 05:44:43;;;;;;;10.27;4.45;;;13.10;99.90;;;;;;4888298;29;20028;-75
2022/05/12 05:47:10;;;;;;;8.75;4.00;;;13.10;99.70;;;;;;4887223;29;20242;-77
2022/05/12 05:49:36;;;;;;;9.95;4.72;;;13.30;99.60;;;;;;4903922;29;20051;-86
2022/05/12 05:54:47;;;;;;;14.30;5.38;;;13.50;99.10;;;;;;4904297;29;20059;-84
2022/05/12 05:57:13;;;;;;;9.23;4.28;;;13.70;98.90;;;;;;4887200;29;20056;-77
2022/05/12 05:59:39;;;;;;;11.10;5.32;;;13.80;98.70;;;;;;4887078;29;20039;-83
2022/05/12 06:02:06;;;;;;;9.50;4.38;;;14.00;98.20;;;;;;4904265;29;20087;-78
2022/05/12 06:04:31;;;;;;;10.57;3.75;;;14.00;98.20;;;;;;4904095;29;20511;-79
2022/05/12 06:06:57;;;;;;;8.77;4.50;;;14.20;98.00;;;;;;4903960;29;20024;-77
2022/05/12 06:09:24;;;;;;;10.07;4.57;;;14.30;97.40;;;;;;4904115;29;20035;-77
2022/05/12 06:11:50;;;;;;;8.85;4.45;;;14.50;97.20;;;;;;4886994;29;20594;-79
2022/05/12 06:14:17;;;;;;;9.52;4.63;;;14.60;97.00;;;;;;4903899;29;20031;-83
2022/05/12 06:16:43;;;;;;;9.70;5.22;;;15.90;96.60;;;;;;4902958;29;20082;-84
2022/05/12 06:19:08;;;;;;;8.70;4.40;;;14.80;96.00;;;;;;4903776;29;20507;-84
2022/05/12 06:21:36;;;;;;;6.63;3.80;;;14.50;95.90;;;;;;4907092;29;20173;-82
2022/05/12 06:24:02;;;;;;;9.95;4.20;;;14.80;96.20;;;;;;4876682;29;20037;-77
2022/05/12 06:26:28;;;;;;;7.28;3.92;;;15.00;96.20;;;;;;4895387;29;20028;-79
2022/05/12 06:28:55;;;;;;;7.05;4.03;;;15.20;96.30;;;;;;4910637;29;20033;-83
2022/05/12 06:31:25;;;;;;;10.75;5.10;;;15.30;96.40;;;;;;4905001;29;20052;-80
2022/05/12 06:33:54;;;;;;;8.20;3.47;;;15.50;95.90;;;;;;4887474;29;20032;-83
2022/05/12 06:36:21;;;;;;;10.68;4.35;;;15.70;95.90;;;;;;4905873;29;20020;-80
2022/05/12 06:38:49;;;;;;;9.05;5.28;;;15.90;95.30;;;;;;4889337;29;20028;-80
2022/05/12 06:41:15;;;;;;;8.65;3.95;;;16.00;95.30;;;;;;4888994;29;20574;-78
2022/05/12 06:43:45;;;;;;;7.78;3.45;;;17.80;95.30;;;;;;4887832;29;20076;-81
2022/05/12 06:46:16;;;;;;;8.05;4.07;;;16.30;94.50;;;;;;4903443;29;20017;-79
2022/05/12 06:48:52;;;;;;;11.93;5.28;;;16.50;94.00;;;;;;4902947;29;20031;-78
2022/05/12 06:51:19;;;;;;;11.07;5.70;;;16.70;93.40;;;;;;4902807;29;20092;-77
2022/05/12 06:53:45;;;;;;;12.10;5.88;;;16.80;93.30;;;;;;4902781;29;20159;-78
2022/05/12 06:56:12;;;;;;;10.93;5.90;;;17.00;92.80;;;;;;4902767;29;20028;-78
2022/05/12 06:58:38;;;;;;;10.57;5.60;;;17.10;92.30;;;;;;4885528;29;20402;-79
2022/05/12 07:01:04;;;;;;;9.95;6.07;;;17.20;92.10;;;;;;4902910;29;20713;-76
2022/05/12 07:03:30;;;;;;;10.93;5.53;;;17.40;91.80;;;;;;4902745;29;20678;-82
2022/05/12 07:05:57;;;;;;;12.95;5.93;;;17.50;91.50;;;;;;4902953;29;20027;-80
2022/05/12 07:08:23;;;;;;;11.57;5.47;;;17.60;91.00;;;;;;4903106;29;20543;-80
2022/05/12 07:10:49;;;;;;;11.73;6.07;;;18.80;91.50;;;;;;4902671;29;20160;-75
2022/05/12 07:13:19;;;;;;;14.27;6.10;;;17.80;90.80;;;;;;4902911;29;20048;-83
2022/05/12 07:15:50;;;;;;;10.40;4.88;;;17.80;90.70;;;;;;4902537;29;20028;-83
2022/05/12 07:18:17;;;;;;;10.25;5.43;;;17.90;90.80;;;;;;4885989;29;20679;-76
2022/05/12 07:28:55;;;;;;;14.60;5.70;;;18.70;88.90;;;;;;4901838;29;20119;-81
2022/05/12 07:31:22;;;;;;;9.45;5.38;;;18.90;88.90;;;;;;4902171;29;20128;-82
2022/05/12 07:33:49;;;;;;;9.98;4.63;;;19.10;87.80;;;;;;4901940;29;20031;-84
2022/05/12 07:36:25;;;;;;;11.90;4.57;;;19.30;87.40;;;;;;4884836;29;20030;-82
2022/05/12 07:38:51;;;;;;;10.27;4.72;;;19.40;86.70;;;;;;4884744;29;20115;-85
2022/05/12 07:41:17;;;;;;;10.90;6.10;;;19.50;85.50;;;;;;4903174;29;20638;-85
2022/05/12 07:43:45;;;;;;;12.15;5.43;;;19.60;85.20;;;;;;4902391;29;20743;-83
2022/05/12 07:46:13;;;;;;;13.00;5.20;;;19.70;83.90;;;;;;4902048;29;20584;-83
2022/05/12 07:48:39;;;;;;;12.32;5.25;;;19.90;83.50;;;;;;4901902;29;20024;-80
2022/05/12 07:51:06;;;;;;;10.15;5.60;;;20.10;82.80;;;;;;4901720;29;20087;-79
2022/05/12 07:53:32;;;;;;;9.75;4.55;;;20.20;82.20;;;;;;4901277;29;20086;-81
2022/05/12 07:55:58;;;;;;;10.27;5.00;;;20.30;81.00;;;;;;4901492;29;20028;-81
2022/05/12 07:58:24;;;;;;;9.43;5.57;;;20.60;80.10;;;;;;4884422;29;20047;-79
2022/05/12 08:00:52;;;;;;;9.75;5.03;;;20.80;78.20;;;;;;4901387;29;20550;-78
2022/05/12 08:03:17;;;;;;;8.60;4.03;;;21.00;77.80;;;;;;4884837;29;20040;-85
2022/05/12 08:05:43;;;;;;;9.63;4.43;;;21.20;82.20;;;;;;4884792;29;20731;-81
2022/05/12 08:08:11;;;;;;;9.23;4.10;;;21.40;76.10;;;;;;4901539;29;20126;-77
2022/05/12 08:10:37;;;;;;;8.15;4.80;;;21.50;75.80;;;;;;4901498;29;20024;-80
2022/05/12 08:13:04;;;;;;;8.00;4.28;;;21.70;74.60;;;;;;4901610;29;20455;-74
2022/05/12 08:15:30;;;;;;;7.97;4.32;;;21.80;73.50;;;;;;4901475;29;20112;-78
2022/05/12 08:17:57;;;;;;;8.85;4.57;;;22.00;71.50;;;;;;4886091;29;20024;-91
2022/05/12 08:20:23;;;;;;;9.70;4.50;;;22.20;70.00;;;;;;4885694;29;20530;-82
2022/05/12 08:22:49;;;;;;;9.30;3.60;;;22.40;69.40;;;;;;4901649;29;20581;-81
2022/05/12 08:25:18;;;;;;;12.68;4.43;;;22.60;68.50;;;;;;4901420;29;20491;-82
2022/05/12 08:34:43;;;;;;;8.38;4.20;;;21.50;63.40;;;;;;4901978;29;20035;-83
2022/05/12 08:50:02;;;;;;;7.00;3.00;;;23.90;60.00;;;;;;4862099;29;20057;-77
2022/05/12 08:52:48;;;;;;;5.70;2.95;;;24.10;57.40;;;;;;4846974;29;20284;-77
2022/05/12 08:55:20;;;;;;;5.32;2.30;;;24.40;55.50;;;;;;4863513;29;20036;-83
2022/05/12 08:57:56;;;;;;;6.03;2.80;;;24.40;53.40;;;;;;4847024;29;20123;-78
2022/05/12 09:00:23;;;;;;;3.25;1.70;;;24.60;53.30;;;;;;4863480;29;20108;-75
2022/05/12 09:03:04;;;;;;;4.07;2.08;;;24.80;50.30;;;;;;4846902;29;20033;-84
2022/05/12 09:05:59;;;;;;;5.95;2.15;;;24.90;48.70;;;;;;4863959;29;20588;-84
2022/05/12 09:08:44;;;;;;;5.90;2.78;;;25.10;48.80;;;;;;4864204;29;20578;-80
2022/05/12 09:11:16;;;;;;;7.57;3.10;;;25.30;48.00;;;;;;4869834;29;20020;-85
2022/05/12 09:50:17;;;;;;;4.97;1.95;;;27.00;37.20;;;;;;5036524;23;20460;-77
2022/05/12 09:53:00;;;;;;;4.63;1.70;;;27.00;36.70;;;;;;4883636;29;20032;-78
2022/05/12 09:55:38;;;;;;;4.15;1.92;;;27.00;36.30;;;;;;4885282;29;20021;-84
2022/05/12 09:58:26;;;;;;;4.82;1.63;;;26.90;38.30;;;;;;4885364;29;20021;-80
2022/05/12 10:01:30;;;;;;;2.88;1.50;;;27.00;39.20;;;;;;4885308;29;20100;-82
2022/05/12 10:10:01;;;;;;;4.10;1.88;;;26.90;39.60;;;;;;4885492;29;20571;-75
2022/05/12 10:12:35;;;;;;;3.72;1.80;;;26.90;38.60;;;;;;4884899;29;20032;-83
2022/05/12 10:15:23;;;;;;;4.45;1.65;;;28.00;39.10;;;;;;4885057;29;20048;-75
2022/05/12 10:17:54;;;;;;;3.95;1.67;;;27.10;36.80;;;;;;4883775;29;20548;-78
2022/05/12 10:20:22;;;;;;;5.38;1.90;;;27.30;39.00;;;;;;4884622;29;20067;-82
2022/05/12 10:22:58;;;;;;;4.45;1.88;;;27.50;39.50;;;;;;4884625;29;20036;-76
2022/05/12 10:25:57;;;;;;;4.40;1.80;;;27.70;37.50;;;;;;4884878;29;20012;-84
2022/05/12 10:29:02;;;;;;;3.63;1.70;;;27.70;38.50;;;;;;4884559;29;20062;-76
2022/05/12 10:31:36;;;;;;;3.80;1.50;;;28.00;37.30;;;;;;4867693;29;20039;-80
2022/05/12 10:34:33;;;;;;;4.97;1.73;;;28.00;35.90;;;;;;4883912;29;20024;-84
2022/05/12 10:37:14;;;;;;;6.05;1.50;;;28.10;35.60;;;;;;4884369;29;20012;-78
2022/05/12 10:40:15;;;;;;;4.68;1.48;;;28.30;35.70;;;;;;4864870;29;20067;-77
2022/05/12 10:43:09;;;;;;;3.42;1.15;;;28.40;34.30;;;;;;4885512;29;20021;-81
2022/05/12 10:45:46;;;;;;;3.22;1.55;;;28.20;35.50;;;;;;4879803;29;20728;-76
2022/05/12 10:48:22;;;;;;;4.80;1.63;;;28.00;35.00;;;;;;4867457;29;20029;-79
2022/05/12 10:51:05;;;;;;;4.95;1.60;;;28.30;37.50;;;;;;4884706;29;20244;-75
2022/05/12 10:53:50;;;;;;;3.80;1.73;;;28.60;36.20;;;;;;4884619;29;20620;-76
2022/05/12 10:56:34;;;;;;;2.47;1.35;;;28.70;34.00;;;;;;4884486;29;20048;-79
2022/05/12 10:59:22;;;;;;;3.75;1.67;;;28.90;34.80;;;;;;4884848;29;20025;-80
2022/05/12 11:02:10;;;;;;;2.85;1.38;;;29.00;34.70;;;;;;4884652;29;20642;-83
2022/05/12 11:04:45;;;;;;;5.85;1.42;;;29.10;34.00;;;;;;4807614;29;20081;-85
2022/05/12 11:07:34;;;;;;;4.55;1.85;;;29.30;35.60;;;;;;4809345;29;20191;-83
2022/05/12 11:10:05;;;;;;;3.80;1.40;;;29.20;33.60;;;;;;4815006;29;20083;-92
2022/05/12 11:12:43;;;;;;;5.72;1.90;;;29.30;33.70;;;;;;4827515;29;20105;-86
2022/05/12 11:15:22;;;;;;;3.17;1.45;;;29.50;35.00;;;;;;4829839;29;20114;-84
2022/05/12 11:18:04;;;;;;;3.45;1.50;;;29.90;34.50;;;;;;4817059;29;20246;-85
2022/05/12 11:20:42;;;;;;;4.18;1.70;;;30.40;34.30;;;;;;4822775;29;20030;-90
2022/05/12 11:23:14;;;;;;;4.68;1.70;;;30.60;34.70;;;;;;4826278;29;20052;-77
2022/05/12 11:26:36;;;;;;;3.47;1.63;;;30.90;34.40;;;;;;4846289;29;20091;-92
2022/05/12 11:32:30;;;;;;;4.13;1.75;;;31.60;33.30;;;;;;4838209;29;20068;-92
2022/05/12 11:35:05;;;;;;;6.15;1.58;;;32.00;34.50;;;;;;4831872;29;20066;-76
2022/05/12 11:37:40;;;;;;;3.35;1.60;;;32.20;33.50;;;;;;4817847;29;20025;-81
2022/05/12 11:40:33;;;;;;;5.03;1.77;;;32.40;33.00;;;;;;4833497;29;20277;-92
2022/05/12 11:46:21;;;;;;;3.50;1.50;;;32.00;32.30;;;;;;4906868;29;20043;-80
2022/05/12 11:49:12;;;;;;;5.55;1.85;;;32.10;31.20;;;;;;4886711;29;20040;-82
2022/05/12 11:51:45;;;;;;;5.30;1.88;;;31.90;32.40;;;;;;4886117;29;20044;-76
2022/05/12 11:54:31;;;;;;;5.53;1.60;;;31.90;32.90;;;;;;4902957;29;20048;-82
2022/05/12 11:56:58;;;;;;;4.00;1.70;;;32.10;32.70;;;;;;4903164;29;20059;-88
2022/05/12 11:59:28;;;;;;;6.57;1.85;;;32.00;32.80;;;;;;4885753;29;20447;-79
2022/05/12 12:01:59;;;;;;;2.60;1.42;;;32.30;32.70;;;;;;4901618;29;20333;-79
2022/05/12 12:04:48;;;;;;;5.20;2.07;;;32.50;33.20;;;;;;4885474;29;20047;-76
2022/05/12 12:07:37;;;;;;;5.15;2.15;;;32.50;32.50;;;;;;4902635;29;20029;-76
2022/05/12 12:10:09;;;;;;;4.53;1.83;;;33.00;32.60;;;;;;4871341;29;20036;-76
2022/05/12 12:12:43;;;;;;;4.25;1.95;;;33.10;32.10;;;;;;4884829;29;20449;-75
2022/05/12 12:15:34;;;;;;;5.47;2.10;;;33.50;32.60;;;;;;4884364;29;20028;-85
2022/05/12 12:18:22;;;;;;;4.32;1.98;;;33.80;31.10;;;;;;4884270;29;20044;-84
2022/05/12 12:20:54;;;;;;;3.22;1.50;;;33.70;29.70;;;;;;4901574;29;20024;-80
2022/05/12 12:23:56;;;;;;;4.38;1.38;;;33.60;29.10;;;;;;4901747;29;20116;-83
2022/05/12 12:26:32;;;;;;;3.80;1.52;;;33.50;29.20;;;;;;4901616;29;20043;-82
2022/05/12 12:29:04;;;;;;;4.55;1.90;;;34.10;30.60;;;;;;4884615;29;20044;-76
2022/05/12 12:31:37;;;;;;;3.97;2.15;;;34.60;31.70;;;;;;4902087;29;20028;-82
2022/05/12 12:34:40;;;;;;;4.72;1.70;;;35.40;30.00;;;;;;4902111;29;20055;-85
2022/05/12 12:37:09;;;;;;;3.88;1.88;;;35.50;29.90;;;;;;4902298;29;20021;-82
2022/05/12 12:39:51;;;;;;;4.13;1.67;;;36.00;29.70;;;;;;4901680;29;20558;-80
2022/05/12 12:42:27;;;;;;;3.35;1.73;;;36.40;30.20;;;;;;4901774;29;20051;-79
2022/05/12 12:45:11;;;;;;;3.83;1.60;;;36.50;29.70;;;;;;4901175;29;20032;-80
2022/05/12 12:48:02;;;;;;;5.05;2.42;;;35.90;29.60;;;;;;4901270;29;20546;-81
2022/05/12 12:50:41;;;;;;;4.07;1.33;;;36.00;28.90;;;;;;4896521;29;20052;-81
2022/05/12 12:53:10;;;;;;;2.92;1.17;;;35.60;28.20;;;;;;4901186;29;20036;-79
2022/05/12 12:58:40;;;;;;;4.57;1.60;;;36.50;27.90;;;;;;4901398;29;20220;-87
2022/05/12 13:01:14;;;;;;;2.85;1.45;;;37.30;28.50;;;;;;4901225;29;20520;-83
2022/05/12 13:03:54;;;;;;;3.42;1.63;;;37.50;28.90;;;;;;4884105;29;20033;-84
2022/05/12 13:06:26;;;;;;;4.95;2.10;;;37.50;30.30;;;;;;4901058;29;20028;-86
2022/05/12 13:09:01;;;;;;;3.90;1.77;;;37.90;29.00;;;;;;4901069;29;20032;-83
2022/05/12 13:11:28;;;;;;;7.60;1.95;;;38.00;29.00;;;;;;4901199;29;20231;-80
2022/05/12 13:13:56;;;;;;;4.07;1.65;;;37.20;29.00;;;;;;4901958;29;20021;-83
2022/05/12 13:16:25;;;;;;;4.75;2.38;;;37.40;28.90;;;;;;4901506;29;20079;-87
2022/05/12 13:18:53;;;;;;;5.18;1.95;;;37.60;28.90;;;;;;4901181;29;20036;-83
2022/05/12 13:21:46;;;;;;;4.43;1.83;;;37.70;29.00;;;;;;4902212;29;20024;-83
2022/05/12 13:24:39;;;;;;;5.45;1.90;;;37.40;29.00;;;;;;4804985;29;20126;-87
2022/05/12 13:27:08;;;;;;;3.10;1.80;;;37.50;28.80;;;;;;4807759;29;20041;-78
2022/05/12 13:29:47;;;;;;;6.07;1.95;;;37.70;28.50;;;;;;4824022;29;20065;-95
2022/05/12 13:32:36;;;;;;;5.03;1.98;;;37.60;28.70;;;;;;4813740;29;20784;-87
2022/05/12 13:35:18;;;;;;;4.55;1.90;;;37.40;28.70;;;;;;4829500;29;20073;-91
2022/05/12 13:37:55;;;;;;;4.45;1.73;;;37.30;27.40;;;;;;4828690;29;20057;-76
2022/05/12 13:40:40;;;;;;;5.22;1.70;;;37.60;27.70;;;;;;4827473;29;20061;-81
2022/05/12 13:43:16;;;;;;;3.05;1.40;;;37.80;27.70;;;;;;4827529;29;20048;-80
2022/05/12 13:45:43;;;;;;;4.15;1.52;;;37.60;27.40;;;;;;4827433;29;20186;-80
2022/05/12 13:48:20;;;;;;;2.90;1.40;;;37.50;27.40;;;;;;4811296;29;20110;-76
2022/05/12 13:50:52;;;;;;;3.80;1.75;;;37.40;27.60;;;;;;4811954;29;20078;-80
2022/05/12 13:53:28;;;;;;;3.47;1.70;;;37.30;27.70;;;;;;4827622;29;20034;-77
2022/05/12 13:56:24;;;;;;;6.05;1.70;;;38.20;27.70;;;;;;4777075;29;20430;-93
2022/05/12 13:58:52;;;;;;;3.10;1.55;;;38.50;27.70;;;;;;4793734;29;20025;-76
2022/05/12 14:01:32;;;;;;;6.30;1.50;;;39.00;27.20;;;;;;4860425;29;20044;-81
2022/05/12 14:04:19;;;;;;;8.10;1.63;;;38.40;26.50;;;;;;4889801;29;20099;-80
2022/05/12 14:07:05;;;;;;;3.65;1.63;;;37.70;26.80;;;;;;4905099;29;20052;-81
2022/05/12 14:09:34;;;;;;;4.35;1.73;;;37.30;26.90;;;;;;4905502;29;20227;-83
2022/05/12 14:12:09;;;;;;;2.90;1.40;;;37.50;26.80;;;;;;4904858;29;20099;-86
2022/05/12 14:20:16;;;;;;;3.80;1.50;;;38.20;27.20;;;;;;4903603;29;20079;-76
2022/05/12 14:22:42;;;;;;;3.70;1.70;;;38.10;27.20;;;;;;4903219;29;20035;-81
2022/05/12 14:25:09;;;;;;;4.00;1.85;;;38.70;27.60;;;;;;4902699;29;20290;-76
2022/05/12 14:27:35;;;;;;;4.72;1.45;;;38.70;27.60;;;;;;4903194;29;20044;-80
2022/05/12 14:30:01;;;;;;;4.30;1.58;;;38.30;27.30;;;;;;4903238;29;20056;-82
2022/05/12 14:32:34;;;;;;;5.22;1.60;;;38.50;28.20;;;;;;4903161;29;20020;-80
2022/05/12 14:35:00;;;;;;;4.93;1.70;;;38.90;27.50;;;;;;4903127;29;20773;-79
2022/05/12 14:37:26;;;;;;;2.08;1.20;;;38.60;27.30;;;;;;4903011;29;20107;-83
2022/05/12 14:39:52;;;;;;;5.88;2.08;;;39.20;27.50;;;;;;4903025;29;20043;-76
2022/05/12 14:42:17;;;;;;;4.72;2.22;;;39.20;26.70;;;;;;4903101;29;20024;-80
2022/05/12 14:44:43;;;;;;;3.80;1.63;;;39.00;27.20;;;;;;4903164;29;20058;-75
2022/05/12 14:47:13;;;;;;;3.33;1.45;;;39.10;26.50;;;;;;4885284;29;20055;-80
2022/05/12 14:49:42;;;;;;;4.03;1.55;;;38.80;26.40;;;;;;4902486;29;20131;-82
2022/05/12 14:52:15;;;;;;;3.50;1.52;;;39.10;26.60;;;;;;4902552;29;20036;-77
2022/05/12 14:54:44;;;;;;;3.03;1.30;;;39.00;27.10;;;;;;4902161;29;20080;-75
2022/05/12 14:57:10;;;;;;;3.75;1.35;;;39.00;26.90;;;;;;4903112;29;20032;-75
2022/05/12 14:59:35;;;;;;;3.58;1.38;;;39.50;26.40;;;;;;4902733;29;20027;-82
2022/05/12 15:02:02;;;;;;;4.38;1.70;;;39.40;26.50;;;;;;4902280;29;20111;-83
2022/05/12 15:04:31;;;;;;;5.03;1.60;;;39.40;26.50;;;;;;4902448;29;20296;-77
2022/05/12 15:06:58;;;;;;;4.30;1.67;;;39.40;26.50;;;;;;4885262;29;20031;-83
2022/05/12 15:09:27;;;;;;;4.20;1.90;;;39.10;26.70;;;;;;4903128;29;20047;-80